sensor_id;sensor_type;location;lat;lon;timestamp;pressure;altitude;pressure_sealevel;temperature;humidity
706;BME280;21234;48.690;9.016;2022-10-24T00:01:29;95801.41;;;15.78;71.91
706;BME280;21234;48.690;9.016;2022-10-24T00:03:56;95808.00;;;15.77;72.17
706;BME280;21234;48.690;9.016;2022-10-24T00:06:23;95814.38;;;15.72;72.42
706;BME280;21234;48.690;9.016;2022-10-24T00:08:50;95807.84;;;15.68;72.51
706;BME280;21234;48.690;9.016;2022-10-24T00:11:19;95811.16;;;15.65;72.66
706;BME280;21234;48.690;9.016;2022-10-24T00:13:48;95805.97;;;15.64;72.83
706;BME280;21234;48.690;9.016;2022-10-24T00:16:15;95813.66;;;15.62;73.33
706;BME280;21234;48.690;9.016;2022-10-24T00:18:43;95818.41;;;15.56;73.46
706;BME280;21234;48.690;9.016;2022-10-24T00:21:10;95817.88;;;15.54;73.56
706;BME280;21234;48.690;9.016;2022-10-24T00:23:37;95823.94;;;15.51;73.57
706;BME280;21234;48.690;9.016;2022-10-24T00:26:04;95825.63;;;15.47;73.65
706;BME280;21234;48.690;9.016;2022-10-24T00:28:33;95823.69;;;15.48;74.24
706;BME280;21234;48.690;9.016;2022-10-24T00:31:02;95822.41;;;15.40;74.21
706;BME280;21234;48.690;9.016;2022-10-24T00:33:30;95824.56;;;15.43;74.43
706;BME280;21234;48.690;9.016;2022-10-24T00:35:57;95826.25;;;15.39;74.39
706;BME280;21234;48.690;9.016;2022-10-24T00:38:25;95821.34;;;15.36;74.51
706;BME280;21234;48.690;9.016;2022-10-24T00:40:52;95815.06;;;15.35;74.68
706;BME280;21234;48.690;9.016;2022-10-24T00:43:23;95815.63;;;15.32;74.68
706;BME280;21234;48.690;9.016;2022-10-24T00:45:53;95811.25;;;15.31;74.53
706;BME280;21234;48.690;9.016;2022-10-24T00:48:24;95818.13;;;15.29;74.83
706;BME280;21234;48.690;9.016;2022-10-24T00:50:56;95827.47;;;15.28;75.10
706;BME280;21234;48.690;9.016;2022-10-24T00:53:26;95827.78;;;15.26;75.04
706;BME280;21234;48.690;9.016;2022-10-24T00:55:57;95830.00;;;15.24;75.21
706;BME280;21234;48.690;9.016;2022-10-24T00:58:29;95832.44;;;15.26;75.23
706;BME280;21234;48.690;9.016;2022-10-24T01:00:56;95829.47;;;15.22;75.64
706;BME280;21234;48.690;9.016;2022-10-24T01:03:25;95834.13;;;15.22;75.39
706;BME280;21234;48.690;9.016;2022-10-24T01:08:47;95838.25;;;15.19;77.34
706;BME280;21234;48.690;9.016;2022-10-24T01:11:26;95838.34;;;15.09;77.30
706;BME280;21234;48.690;9.016;2022-10-24T01:13:57;95840.59;;;15.02;77.48
706;BME280;21234;48.690;9.016;2022-10-24T01:16:30;95839.25;;;14.99;78.04
706;BME280;21234;48.690;9.016;2022-10-24T01:19:11;95842.28;;;14.98;77.53
706;BME280;21234;48.690;9.016;2022-10-24T01:21:41;95847.75;;;14.98;77.69
706;BME280;21234;48.690;9.016;2022-10-24T01:24:31;95849.09;;;15.00;77.64
706;BME280;21234;48.690;9.016;2022-10-24T01:27:20;95850.50;;;14.98;77.55
706;BME280;21234;48.690;9.016;2022-10-24T01:30:02;95850.28;;;14.94;79.35
706;BME280;21234;48.690;9.016;2022-10-24T01:32:41;95839.09;;;14.91;80.07
706;BME280;21234;48.690;9.016;2022-10-24T01:35:19;95829.53;;;14.88;78.62
706;BME280;21234;48.690;9.016;2022-10-24T01:37:54;95831.72;;;14.86;78.93
706;BME280;21234;48.690;9.016;2022-10-24T01:40:25;95828.19;;;14.86;79.08
706;BME280;21234;48.690;9.016;2022-10-24T01:42:57;95836.69;;;14.84;79.86
706;BME280;21234;48.690;9.016;2022-10-24T01:45:29;95837.25;;;14.81;79.50
706;BME280;21234;48.690;9.016;2022-10-24T01:48:01;95841.63;;;14.82;80.83
706;BME280;21234;48.690;9.016;2022-10-24T01:50:30;95829.84;;;14.82;79.93
706;BME280;21234;48.690;9.016;2022-10-24T01:52:58;95836.44;;;14.81;80.18
706;BME280;21234;48.690;9.016;2022-10-24T01:55:26;95823.34;;;14.72;80.34
706;BME280;21234;48.690;9.016;2022-10-24T01:57:52;95838.97;;;14.72;81.16
706;BME280;21234;48.690;9.016;2022-10-24T02:00:21;95840.88;;;14.71;81.18
706;BME280;21234;48.690;9.016;2022-10-24T02:02:53;95846.31;;;14.76;80.77
706;BME280;21234;48.690;9.016;2022-10-24T02:05:23;95847.41;;;14.75;81.63
706;BME280;21234;48.690;9.016;2022-10-24T02:07:55;95847.66;;;14.79;81.28
706;BME280;21234;48.690;9.016;2022-10-24T02:10:26;95854.16;;;14.88;81.37
706;BME280;21234;48.690;9.016;2022-10-24T02:12:58;95854.16;;;14.88;81.31
706;BME280;21234;48.690;9.016;2022-10-24T02:15:29;95851.94;;;14.90;81.70
706;BME280;21234;48.690;9.016;2022-10-24T02:17:58;95851.00;;;15.00;80.80
706;BME280;21234;48.690;9.016;2022-10-24T02:20:28;95846.31;;;15.05;80.24
706;BME280;21234;48.690;9.016;2022-10-24T02:23:01;95833.63;;;15.15;79.40
706;BME280;21234;48.690;9.016;2022-10-24T02:25:32;95831.91;;;15.24;78.76
706;BME280;21234;48.690;9.016;2022-10-24T02:28:04;95819.25;;;15.28;78.53
706;BME280;21234;48.690;9.016;2022-10-24T02:30:36;95817.31;;;15.28;78.60
706;BME280;21234;48.690;9.016;2022-10-24T02:33:06;95807.41;;;15.32;78.31
706;BME280;21234;48.690;9.016;2022-10-24T02:35:35;95799.72;;;15.34;78.45
706;BME280;21234;48.690;9.016;2022-10-24T02:38:08;95799.16;;;15.37;78.81
706;BME280;21234;48.690;9.016;2022-10-24T02:40:38;95789.53;;;15.40;78.70
706;BME280;21234;48.690;9.016;2022-10-24T02:43:06;95784.63;;;15.37;78.96
706;BME280;21234;48.690;9.016;2022-10-24T02:45:35;95798.03;;;15.38;79.34
706;BME280;21234;48.690;9.016;2022-10-24T02:48:07;95810.16;;;15.32;79.85
706;BME280;21234;48.690;9.016;2022-10-24T02:50:37;95805.25;;;15.29;80.01
706;BME280;21234;48.690;9.016;2022-10-24T02:53:05;95800.06;;;15.28;80.33
706;BME280;21234;48.690;9.016;2022-10-24T02:55:33;95807.47;;;15.27;80.71
706;BME280;21234;48.690;9.016;2022-10-24T02:58:00;95808.28;;;15.28;81.35
706;BME280;21234;48.690;9.016;2022-10-24T03:00:27;95809.09;;;15.28;81.69
706;BME280;21234;48.690;9.016;2022-10-24T03:02:54;95816.22;;;15.29;82.46
706;BME280;21234;48.690;9.016;2022-10-24T03:05:22;95800.84;;;15.33;82.46
706;BME280;21234;48.690;9.016;2022-10-24T03:07:48;95813.91;;;15.41;82.00
706;BME280;21234;48.690;9.016;2022-10-24T03:10:15;95806.56;;;15.37;82.43
706;BME280;21234;48.690;9.016;2022-10-24T03:12:42;95807.91;;;15.39;82.04
706;BME280;21234;48.690;9.016;2022-10-24T03:15:09;95802.34;;;15.44;81.70
706;BME280;21234;48.690;9.016;2022-10-24T03:17:36;95813.03;;;15.46;81.62
706;BME280;21234;48.690;9.016;2022-10-24T03:20:03;95822.59;;;15.49;81.86
706;BME280;21234;48.690;9.016;2022-10-24T03:22:31;95823.16;;;15.45;81.93
706;BME280;21234;48.690;9.016;2022-10-24T03:24:58;95818.22;;;15.48;82.14
706;BME280;21234;48.690;9.016;2022-10-24T03:27:26;95839.06;;;15.43;82.42
706;BME280;21234;48.690;9.016;2022-10-24T03:29:53;95832.50;;;15.44;82.35
706;BME280;21234;48.690;9.016;2022-10-24T03:32:19;95831.97;;;15.42;82.25
706;BME280;21234;48.690;9.016;2022-10-24T03:34:46;95827.31;;;15.43;82.69
706;BME280;21234;48.690;9.016;2022-10-24T03:37:13;95815.53;;;15.42;82.79
706;BME280;21234;48.690;9.016;2022-10-24T03:39:41;95814.72;;;15.42;82.98
706;BME280;21234;48.690;9.016;2022-10-24T03:42:08;95815.28;;;15.39;83.24
706;BME280;21234;48.690;9.016;2022-10-24T03:44:34;95807.13;;;15.34;83.18
706;BME280;21234;48.690;9.016;2022-10-24T03:47:01;95803.56;;;15.33;83.06
706;BME280;21234;48.690;9.016;2022-10-24T03:49:28;95804.16;;;15.30;83.69
706;BME280;21234;48.690;9.016;2022-10-24T03:51:55;95815.69;;;15.27;83.80
706;BME280;21234;48.690;9.016;2022-10-24T03:54:21;95808.91;;;15.25;83.82
706;BME280;21234;48.690;9.016;2022-10-24T03:56:49;95818.44;;;15.27;83.69
706;BME280;21234;48.690;9.016;2022-10-24T03:59:16;95816.28;;;15.24;83.86
706;BME280;21234;48.690;9.016;2022-10-24T04:01:43;95828.59;;;15.27;83.74
706;BME280;21234;48.690;9.016;2022-10-24T04:04:09;95821.16;;;15.27;83.73
706;BME280;21234;48.690;9.016;2022-10-24T04:06:36;95834.06;;;15.27;84.11
706;BME280;21234;48.690;9.016;2022-10-24T04:09:04;95826.97;;;15.26;83.87
706;BME280;21234;48.690;9.016;2022-10-24T04:11:31;95832.13;;;15.27;84.14
706;BME280;21234;48.690;9.016;2022-10-24T04:13:59;95834.66;;;15.24;84.01
706;BME280;21234;48.690;9.016;2022-10-24T04:16:26;95833.84;;;15.23;84.13
706;BME280;21234;48.690;9.016;2022-10-24T04:18:53;95837.09;;;15.25;83.72
706;BME280;21234;48.690;9.016;2022-10-24T04:21:20;95830.00;;;15.24;83.41
706;BME280;21234;48.690;9.016;2022-10-24T04:23:46;95835.19;;;15.26;83.23
706;BME280;21234;48.690;9.016;2022-10-24T04:26:15;95818.75;;;15.26;83.34
706;BME280;21234;48.690;9.016;2022-10-24T04:28:42;95802.00;;;15.27;83.20
706;BME280;21234;48.690;9.016;2022-10-24T04:31:10;95799.78;;;15.29;82.64
706;BME280;21234;48.690;9.016;2022-10-24T04:33:36;95800.41;;;15.26;83.22
706;BME280;21234;48.690;9.016;2022-10-24T04:36:04;95800.88;;;15.28;82.88
706;BME280;21234;48.690;9.016;2022-10-24T04:38:30;95801.22;;;15.27;83.01
706;BME280;21234;48.690;9.016;2022-10-24T04:40:57;95812.94;;;15.27;82.82
706;BME280;21234;48.690;9.016;2022-10-24T04:43:25;95817.56;;;15.32;81.91
706;BME280;21234;48.690;9.016;2022-10-24T04:45:52;95819.66;;;15.40;81.27
706;BME280;21234;48.690;9.016;2022-10-24T04:48:20;95816.06;;;15.44;80.66
706;BME280;21234;48.690;9.016;2022-10-24T04:50:47;95813.56;;;15.48;80.56
706;BME280;21234;48.690;9.016;2022-10-24T04:53:14;95816.53;;;15.52;80.15
706;BME280;21234;48.690;9.016;2022-10-24T04:55:40;95804.75;;;15.51;79.55
706;BME280;21234;48.690;9.016;2022-10-24T04:58:07;95814.03;;;15.55;79.57
706;BME280;21234;48.690;9.016;2022-10-24T05:00:34;95821.19;;;15.51;80.02
706;BME280;21234;48.690;9.016;2022-10-24T05:03:05;95819.75;;;15.59;78.79
706;BME280;21234;48.690;9.016;2022-10-24T05:05:35;95802.50;;;15.58;79.49
706;BME280;21234;48.690;9.016;2022-10-24T05:08:02;95803.88;;;15.56;79.15
706;BME280;21234;48.690;9.016;2022-10-24T05:10:29;95809.09;;;15.57;79.19
706;BME280;21234;48.690;9.016;2022-10-24T05:12:56;95822.25;;;15.55;79.44
706;BME280;21234;48.690;9.016;2022-10-24T05:15:22;95820.31;;;15.56;79.56
706;BME280;21234;48.690;9.016;2022-10-24T05:17:49;95828.81;;;15.59;79.51
706;BME280;21234;48.690;9.016;2022-10-24T05:20:16;95822.78;;;15.57;80.17
706;BME280;21234;48.690;9.016;2022-10-24T05:22:44;95827.47;;;15.57;80.96
706;BME280;21234;48.690;9.016;2022-10-24T05:25:11;95828.88;;;15.49;81.53
706;BME280;21234;48.690;9.016;2022-10-24T05:27:37;95840.13;;;15.48;82.09
706;BME280;21234;48.690;9.016;2022-10-24T05:30:05;95848.41;;;15.42;82.50
706;BME280;21234;48.690;9.016;2022-10-24T05:32:32;95841.88;;;15.38;83.27
706;BME280;21234;48.690;9.016;2022-10-24T05:34:59;95849.25;;;15.38;82.68
706;BME280;21234;48.690;9.016;2022-10-24T05:37:26;95851.44;;;15.41;83.39
706;BME280;21234;48.690;9.016;2022-10-24T05:39:54;95853.63;;;15.39;83.18
706;BME280;21234;48.690;9.016;2022-10-24T05:42:20;95843.03;;;15.32;83.96
706;BME280;21234;48.690;9.016;2022-10-24T05:44:47;95844.22;;;15.26;84.88
706;BME280;21234;48.690;9.016;2022-10-24T05:47:14;95849.97;;;15.25;84.88
706;BME280;21234;48.690;9.016;2022-10-24T05:49:40;95853.00;;;15.23;85.10
706;BME280;21234;48.690;9.016;2022-10-24T05:52:07;95860.41;;;15.23;85.05
706;BME280;21234;48.690;9.016;2022-10-24T05:54:34;95855.75;;;15.23;85.66
706;BME280;21234;48.690;9.016;2022-10-24T05:57:02;95869.72;;;15.22;85.89
706;BME280;21234;48.690;9.016;2022-10-24T05:59:29;95864.28;;;15.17;86.70
706;BME280;21234;48.690;9.016;2022-10-24T06:01:55;95853.38;;;15.11;87.54
706;BME280;21234;48.690;9.016;2022-10-24T06:04:22;95854.19;;;15.12;87.22
706;BME280;21234;48.690;9.016;2022-10-24T06:06:49;95870.66;;;15.07;87.70
706;BME280;21234;48.690;9.016;2022-10-24T06:09:15;95875.06;;;15.03;87.64
706;BME280;21234;48.690;9.016;2022-10-24T06:11:42;95869.03;;;15.06;88.15
706;BME280;21234;48.690;9.016;2022-10-24T06:14:10;95868.50;;;15.04;89.60
706;BME280;21234;48.690;9.016;2022-10-24T06:16:37;95864.16;;;14.98;92.49
706;BME280;21234;48.690;9.016;2022-10-24T06:19:04;95863.44;;;14.92;93.85
706;BME280;21234;48.690;9.016;2022-10-24T06:21:30;95873.31;;;14.88;95.24
706;BME280;21234;48.690;9.016;2022-10-24T06:23:57;95869.00;;;14.77;95.95
706;BME280;21234;48.690;9.016;2022-10-24T06:26:24;95873.38;;;14.78;96.63
706;BME280;21234;48.690;9.016;2022-10-24T06:28:50;95865.75;;;14.75;96.83
706;BME280;21234;48.690;9.016;2022-10-24T06:31:19;95873.44;;;14.73;97.54
706;BME280;21234;48.690;9.016;2022-10-24T06:33:46;95875.66;;;14.66;97.98
706;BME280;21234;48.690;9.016;2022-10-24T06:36:13;95881.94;;;14.66;97.73
706;BME280;21234;48.690;9.016;2022-10-24T06:38:39;95881.38;;;14.69;97.34
706;BME280;21234;48.690;9.016;2022-10-24T06:41:07;95881.13;;;14.66;98.07
706;BME280;21234;48.690;9.016;2022-10-24T06:43:35;95883.56;;;14.72;98.04
706;BME280;21234;48.690;9.016;2022-10-24T06:46:04;95875.34;;;14.72;98.42
706;BME280;21234;48.690;9.016;2022-10-24T06:48:33;95871.50;;;14.73;97.91
706;BME280;21234;48.690;9.016;2022-10-24T06:51:00;95884.09;;;14.74;96.86
706;BME280;21234;48.690;9.016;2022-10-24T06:53:28;95896.97;;;14.69;97.92
706;BME280;21234;48.690;9.016;2022-10-24T06:55:58;95888.50;;;14.70;98.50
706;BME280;21234;48.690;9.016;2022-10-24T06:58:25;95890.91;;;14.77;100.00
706;BME280;21234;48.690;9.016;2022-10-24T07:00:51;95910.38;;;14.70;100.00
706;BME280;21234;48.690;9.016;2022-10-24T07:03:18;95921.91;;;14.62;100.00
706;BME280;21234;48.690;9.016;2022-10-24T07:05:46;95932.56;;;14.64;100.00
706;BME280;21234;48.690;9.016;2022-10-24T07:08:12;95928.81;;;14.60;100.00
706;BME280;21234;48.690;9.016;2022-10-24T07:10:39;95939.75;;;14.60;100.00
706;BME280;21234;48.690;9.016;2022-10-24T07:13:06;95943.84;;;14.57;100.00
706;BME280;21234;48.690;9.016;2022-10-24T07:15:32;95941.38;;;14.61;100.00
706;BME280;21234;48.690;9.016;2022-10-24T07:17:59;95928.25;;;14.58;100.00
706;BME280;21234;48.690;9.016;2022-10-24T07:20:26;95919.78;;;14.59;100.00
706;BME280;21234;48.690;9.016;2022-10-24T07:22:54;95917.34;;;14.53;100.00
706;BME280;21234;48.690;9.016;2022-10-24T07:25:20;95922.25;;;14.56;100.00
706;BME280;21234;48.690;9.016;2022-10-24T07:27:47;95929.66;;;14.55;100.00
706;BME280;21234;48.690;9.016;2022-10-24T07:30:17;95927.97;;;14.59;100.00
706;BME280;21234;48.690;9.016;2022-10-24T07:32:44;95930.44;;;14.61;100.00
706;BME280;21234;48.690;9.016;2022-10-24T07:35:11;95940.03;;;14.58;100.00
706;BME280;21234;48.690;9.016;2022-10-24T07:37:38;95943.59;;;14.54;100.00
706;BME280;21234;48.690;9.016;2022-10-24T07:40:07;95945.25;;;14.55;100.00
706;BME280;21234;48.690;9.016;2022-10-24T07:42:34;95938.69;;;14.51;100.00
706;BME280;21234;48.690;9.016;2022-10-24T07:45:00;95946.38;;;14.49;100.00
706;BME280;21234;48.690;9.016;2022-10-24T07:47:28;95966.06;;;14.45;100.00
706;BME280;21234;48.690;9.016;2022-10-24T07:49:55;95954.31;;;14.40;100.00
706;BME280;21234;48.690;9.016;2022-10-24T07:52:22;95969.06;;;14.39;100.00
706;BME280;21234;48.690;9.016;2022-10-24T07:54:51;95965.53;;;14.38;100.00
706;BME280;21234;48.690;9.016;2022-10-24T07:57:19;95965.00;;;14.31;100.00
706;BME280;21234;48.690;9.016;2022-10-24T07:59:46;95963.16;;;14.27;100.00
706;BME280;21234;48.690;9.016;2022-10-24T08:02:13;95970.25;;;14.23;100.00
706;BME280;21234;48.690;9.016;2022-10-24T08:04:41;95964.81;;;14.18;100.00
706;BME280;21234;48.690;9.016;2022-10-24T08:07:10;95937.47;;;14.18;100.00
706;BME280;21234;48.690;9.016;2022-10-24T08:09:38;95847.31;;;14.07;100.00
706;BME280;21234;48.690;9.016;2022-10-24T08:12:05;95821.69;;;13.98;100.00
706;BME280;21234;48.690;9.016;2022-10-24T08:14:33;95891.06;;;14.02;100.00
706;BME280;21234;48.690;9.016;2022-10-24T08:17:01;95907.72;;;14.06;100.00
706;BME280;21234;48.690;9.016;2022-10-24T08:19:29;95915.09;;;14.10;100.00
706;BME280;21234;48.690;9.016;2022-10-24T08:21:55;95908.50;;;14.17;100.00
706;BME280;21234;48.690;9.016;2022-10-24T08:24:23;95906.81;;;14.26;100.00
706;BME280;21234;48.690;9.016;2022-10-24T08:26:50;95904.28;;;14.34;100.00
706;BME280;21234;48.690;9.016;2022-10-24T08:29:16;95910.00;;;14.48;100.00
706;BME280;21234;48.690;9.016;2022-10-24T08:31:50;95912.97;;;14.52;100.00
706;BME280;21234;48.690;9.016;2022-10-24T08:34:17;95923.63;;;14.53;100.00
706;BME280;21234;48.690;9.016;2022-10-24T08:36:44;95919.53;;;14.56;100.00
706;BME280;21234;48.690;9.016;2022-10-24T08:39:11;95921.72;;;14.54;100.00
706;BME280;21234;48.690;9.016;2022-10-24T08:41:40;95928.00;;;14.54;100.00
706;BME280;21234;48.690;9.016;2022-10-24T08:44:15;95923.38;;;14.50;100.00
706;BME280;21234;48.690;9.016;2022-10-24T08:46:45;95926.13;;;14.50;100.00
706;BME280;21234;48.690;9.016;2022-10-24T08:49:25;95923.91;;;14.52;100.00
706;BME280;21234;48.690;9.016;2022-10-24T08:51:55;95914.94;;;14.46;100.00
706;BME280;21234;48.690;9.016;2022-10-24T08:54:28;95904.53;;;14.48;100.00
706;BME280;21234;48.690;9.016;2022-10-24T08:56:57;95904.00;;;14.46;100.00
706;BME280;21234;48.690;9.016;2022-10-24T08:59:26;95899.63;;;14.45;100.00
706;BME280;21234;48.690;9.016;2022-10-24T09:01:58;95906.97;;;14.50;100.00
706;BME280;21234;48.690;9.016;2022-10-24T09:04:32;95910.00;;;14.48;100.00
706;BME280;21234;48.690;9.016;2022-10-24T09:07:00;95907.78;;;14.50;100.00
706;BME280;21234;48.690;9.016;2022-10-24T09:09:32;95908.34;;;14.52;100.00
706;BME280;21234;48.690;9.016;2022-10-24T09:12:03;95922.78;;;14.58;100.00
706;BME280;21234;48.690;9.016;2022-10-24T09:14:36;95931.56;;;14.55;100.00
706;BME280;21234;48.690;9.016;2022-10-24T09:17:11;95946.03;;;14.60;100.00
706;BME280;21234;48.690;9.016;2022-10-24T09:19:40;95956.38;;;14.63;100.00
706;BME280;21234;48.690;9.016;2022-10-24T09:22:10;95944.69;;;14.58;100.00
706;BME280;21234;48.690;9.016;2022-10-24T09:24:40;95945.25;;;14.55;100.00
706;BME280;21234;48.690;9.016;2022-10-24T09:27:11;95946.63;;;14.52;100.00
706;BME280;21234;48.690;9.016;2022-10-24T09:29:40;95951.28;;;14.52;100.00
706;BME280;21234;48.690;9.016;2022-10-24T09:32:13;95960.28;;;14.52;100.00
706;BME280;21234;48.690;9.016;2022-10-24T09:34:42;95957.56;;;14.52;100.00
706;BME280;21234;48.690;9.016;2022-10-24T09:37:35;95954.28;;;14.50;100.00
706;BME280;21234;48.690;9.016;2022-10-24T09:40:16;95945.53;;;14.48;100.00
706;BME280;21234;48.690;9.016;2022-10-24T09:42:50;95953.22;;;14.46;100.00
706;BME280;21234;48.690;9.016;2022-10-24T09:45:37;95966.31;;;14.49;100.00
706;BME280;21234;48.690;9.016;2022-10-24T09:48:13;95961.94;;;14.53;100.00
706;BME280;21234;48.690;9.016;2022-10-24T09:50:43;95964.38;;;14.60;100.00
706;BME280;21234;48.690;9.016;2022-10-24T09:53:21;95961.03;;;14.63;100.00
706;BME280;21234;48.690;9.016;2022-10-24T09:55:51;95961.00;;;14.68;100.00
706;BME280;21234;48.690;9.016;2022-10-24T09:58:20;95967.81;;;14.70;100.00
706;BME280;21234;48.690;9.016;2022-10-24T10:00:56;95960.47;;;14.66;100.00
706;BME280;21234;48.690;9.016;2022-10-24T10:03:23;95960.72;;;14.69;100.00
706;BME280;21234;48.690;9.016;2022-10-24T10:05:52;95966.44;;;14.73;100.00
706;BME280;21234;48.690;9.016;2022-10-24T10:08:21;95968.34;;;14.77;100.00
706;BME280;21234;48.690;9.016;2022-10-24T10:10:57;95964.75;;;14.82;100.00
706;BME280;21234;48.690;9.016;2022-10-24T10:13:25;95963.13;;;14.81;100.00
706;BME280;21234;48.690;9.016;2022-10-24T10:15:54;95951.31;;;14.86;100.00
706;BME280;21234;48.690;9.016;2022-10-24T10:18:25;95958.72;;;14.85;100.00
706;BME280;21234;48.690;9.016;2022-10-24T10:21:09;95942.28;;;14.85;99.57
706;BME280;21234;48.690;9.016;2022-10-24T10:23:38;95959.78;;;14.89;97.69
706;BME280;21234;48.690;9.016;2022-10-24T10:26:18;95950.47;;;14.90;97.70
706;BME280;21234;48.690;9.016;2022-10-24T10:28:50;95949.09;;;14.93;97.46
706;BME280;21234;48.690;9.016;2022-10-24T10:31:19;95958.69;;;14.90;96.44
706;BME280;21234;48.690;9.016;2022-10-24T10:33:56;95960.53;;;14.95;97.04
706;BME280;21234;48.690;9.016;2022-10-24T10:36:30;95962.50;;;14.94;97.10
706;BME280;21234;48.690;9.016;2022-10-24T10:39:11;95964.09;;;14.95;96.13
706;BME280;21234;48.690;9.016;2022-10-24T10:41:48;95966.06;;;14.90;95.90
706;BME280;21234;48.690;9.016;2022-10-24T10:44:29;95979.69;;;14.95;96.05
706;BME280;21234;48.690;9.016;2022-10-24T10:47:07;95984.41;;;14.89;95.01
706;BME280;21234;48.690;9.016;2022-10-24T10:49:38;95992.38;;;14.86;95.05
706;BME280;21234;48.690;9.016;2022-10-24T10:52:11;95989.94;;;14.79;95.05
706;BME280;21234;48.690;9.016;2022-10-24T10:54:58;95990.78;;;14.74;95.53
706;BME280;21234;48.690;9.016;2022-10-24T10:57:34;95988.34;;;14.73;95.60
706;BME280;21234;48.690;9.016;2022-10-24T11:00:07;95993.56;;;14.69;95.86
706;BME280;21234;48.690;9.016;2022-10-24T11:03:05;95989.75;;;14.65;95.40
706;BME280;21234;48.690;9.016;2022-10-24T11:05:48;95997.66;;;14.67;94.95
706;BME280;21234;48.690;9.016;2022-10-24T11:08:40;95995.75;;;14.67;95.33
706;BME280;21234;48.690;9.016;2022-10-24T11:11:14;95999.56;;;14.71;95.98
706;BME280;21234;48.690;9.016;2022-10-24T11:13:46;96000.34;;;14.77;95.47
706;BME280;21234;48.690;9.016;2022-10-24T11:16:19;96005.28;;;14.75;95.59
706;BME280;21234;48.690;9.016;2022-10-24T11:18:50;95987.53;;;14.72;95.19
706;BME280;21234;48.690;9.016;2022-10-24T11:21:19;95992.44;;;14.70;95.32
706;BME280;21234;48.690;9.016;2022-10-24T11:23:50;96000.34;;;14.77;95.72
706;BME280;21234;48.690;9.016;2022-10-24T11:26:22;95991.31;;;14.76;95.43
706;BME280;21234;48.690;9.016;2022-10-24T11:28:56;95984.19;;;14.81;95.70
706;BME280;21234;48.690;9.016;2022-10-24T11:31:28;95991.84;;;14.84;95.17
706;BME280;21234;48.690;9.016;2022-10-24T11:34:00;95984.72;;;14.83;94.77
706;BME280;21234;48.690;9.016;2022-10-24T11:36:31;95979.50;;;14.86;95.16
706;BME280;21234;48.690;9.016;2022-10-24T11:39:10;95970.16;;;14.92;95.18
706;BME280;21234;48.690;9.016;2022-10-24T11:41:50;95967.38;;;14.97;93.79
706;BME280;21234;48.690;9.016;2022-10-24T11:44:37;95968.81;;;14.90;93.95
706;BME280;21234;48.690;9.016;2022-10-24T11:47:15;95969.34;;;14.92;93.77
706;BME280;21234;48.690;9.016;2022-10-24T11:49:48;95970.44;;;14.91;94.53
706;BME280;21234;48.690;9.016;2022-10-24T11:52:20;95960.50;;;15.00;95.40
706;BME280;21234;48.690;9.016;2022-10-24T11:54:52;95951.97;;;15.06;95.18
706;BME280;21234;48.690;9.016;2022-10-24T11:57:22;95959.03;;;15.12;94.55
706;BME280;21234;48.690;9.016;2022-10-24T11:59:52;95962.56;;;15.18;94.70
706;BME280;21234;48.690;9.016;2022-10-24T12:02:54;95965.00;;;15.20;93.93
706;BME280;21234;48.690;9.016;2022-10-24T12:05:43;95953.78;;;15.21;93.95
706;BME280;21234;48.690;9.016;2022-10-24T12:08:48;95944.47;;;15.22;93.88
706;BME280;21234;48.690;9.016;2022-10-24T12:11:42;95937.44;;;15.11;93.47
706;BME280;21234;48.690;9.016;2022-10-24T12:17:40;95930.53;;;15.19;93.80
706;BME280;21234;48.690;9.016;2022-10-24T12:20:12;95927.75;;;15.24;94.16
706;BME280;21234;48.690;9.016;2022-10-24T12:22:42;95931.31;;;15.24;93.88
706;BME280;21234;48.690;9.016;2022-10-24T12:25:19;95920.06;;;15.26;94.73
706;BME280;21234;48.690;9.016;2022-10-24T12:27:53;95926.03;;;15.28;92.95
706;BME280;21234;48.690;9.016;2022-10-24T12:30:22;95919.28;;;15.20;92.74
706;BME280;21234;48.690;9.016;2022-10-24T12:32:52;95929.66;;;15.23;92.67
706;BME280;21234;48.690;9.016;2022-10-24T12:35:44;95924.66;;;15.30;92.98
706;BME280;21234;48.690;9.016;2022-10-24T12:41:40;95914.28;;;15.27;92.23
706;BME280;21234;48.690;9.016;2022-10-24T12:44:36;95915.63;;;15.30;91.82
706;BME280;21234;48.690;9.016;2022-10-24T12:50:55;95936.00;;;15.48;91.64
706;BME280;21234;48.690;9.016;2022-10-24T12:53:37;95934.31;;;15.52;89.67
706;BME280;21234;48.690;9.016;2022-10-24T12:56:08;95928.31;;;15.50;88.57
706;BME280;21234;48.690;9.016;2022-10-24T12:58:36;95935.94;;;15.53;88.47
706;BME280;21234;48.690;9.016;2022-10-24T13:01:08;95940.84;;;15.56;88.04
706;BME280;21234;48.690;9.016;2022-10-24T13:06:43;95928.41;;;15.68;87.12
706;BME280;21234;48.690;9.016;2022-10-24T13:09:21;95924.31;;;15.66;86.27
706;BME280;21234;48.690;9.016;2022-10-24T13:12:03;95934.75;;;15.64;86.33
706;BME280;21234;48.690;9.016;2022-10-24T13:14:52;95925.13;;;15.66;86.29
706;BME280;21234;48.690;9.016;2022-10-24T13:17:31;95933.69;;;15.60;85.87
706;BME280;21234;48.690;9.016;2022-10-24T13:20:05;95927.06;;;15.66;86.78
706;BME280;21234;48.690;9.016;2022-10-24T13:22:39;95924.03;;;15.67;87.07
706;BME280;21234;48.690;9.016;2022-10-24T13:25:18;95930.91;;;15.65;87.19
706;BME280;21234;48.690;9.016;2022-10-24T13:30:45;95927.94;;;15.61;86.48
706;BME280;21234;48.690;9.016;2022-10-24T13:33:41;95919.22;;;15.59;86.92
706;BME280;21234;48.690;9.016;2022-10-24T13:36:13;95927.44;;;15.59;87.10
706;BME280;21234;48.690;9.016;2022-10-24T13:38:46;95934.00;;;15.58;87.21
706;BME280;21234;48.690;9.016;2022-10-24T13:41:20;95933.75;;;15.55;86.41
706;BME280;21234;48.690;9.016;2022-10-24T13:43:51;95936.53;;;15.50;86.33
706;BME280;21234;48.690;9.016;2022-10-24T13:46:25;95939.03;;;15.46;86.92
706;BME280;21234;48.690;9.016;2022-10-24T13:48:55;95938.41;;;15.54;87.72
706;BME280;21234;48.690;9.016;2022-10-24T13:51:28;95942.00;;;15.50;87.55
706;BME280;21234;48.690;9.016;2022-10-24T13:54:00;95955.94;;;15.53;88.03
706;BME280;21234;48.690;9.016;2022-10-24T13:56:30;95945.13;;;15.38;87.56
706;BME280;21234;48.690;9.016;2022-10-24T13:59:00;95956.38;;;15.36;88.15